createdAt,value
2018-06-28T02:03:20.304Z,3
2018-06-28T02:03:50.434Z,0
2018-06-28T02:04:20.449Z,3
2018-06-28T02:14:21.027Z,7
2018-06-28T02:18:21.224Z,10
2018-06-28T02:21:51.498Z,13
2018-06-28T02:24:21.658Z,17
2018-06-28T02:25:51.753Z,20
2018-06-28T02:27:21.854Z,23
2018-06-28T02:28:21.871Z,27
2018-06-28T02:29:52.020Z,30
2018-06-28T02:30:52.053Z,33
2018-06-28T02:31:22.092Z,37
2018-06-28T02:32:22.142Z,40
2018-06-28T02:32:52.177Z,43
2018-06-28T02:33:52.235Z,47
2018-06-28T02:34:22.278Z,50
2018-06-28T02:34:52.317Z,53
2018-06-28T02:35:22.320Z,57
2018-06-28T02:35:52.365Z,60
2018-06-28T02:36:22.366Z,63
2018-06-28T02:36:52.393Z,67
2018-06-28T02:37:22.457Z,70
2018-06-28T02:37:52.537Z,73
2018-06-28T02:38:22.475Z,77
2018-06-28T02:38:52.529Z,83
2018-06-28T02:39:22.525Z,87
2018-06-28T02:39:52.565Z,93
2018-06-28T02:40:22.621Z,97
2018-06-28T02:40:52.619Z,103
2018-06-28T02:41:22.677Z,107
2018-06-28T02:41:52.673Z,113
2018-06-28T02:42:22.739Z,120
2018-06-28T02:42:52.762Z,127
2018-06-28T02:43:22.758Z,133
2018-06-28T02:43:52.811Z,140
2018-06-28T02:44:22.836Z,150
2018-06-28T02:44:52.860Z,157
2018-06-28T02:45:22.896Z,167
2018-06-28T02:45:52.915Z,173
2018-06-28T02:46:22.950Z,187
2018-06-28T02:46:53.007Z,197
2018-06-28T02:47:23.047Z,210
2018-06-28T02:47:53.043Z,220
2018-06-28T02:48:23.079Z,233
2018-06-28T02:48:53.105Z,247
2018-06-28T02:49:23.164Z,257
2018-06-28T02:49:53.182Z,270
2018-06-28T02:50:23.201Z,283
2018-06-28T02:50:53.288Z,293
2018-06-28T02:51:23.326Z,307
2018-06-28T02:51:53.348Z,323
2018-06-28T02:52:23.369Z,340
2018-06-28T02:52:53.395Z,360
2018-06-28T02:53:23.427Z,380
2018-06-28T02:53:53.433Z,397
2018-06-28T02:54:23.546Z,417
2018-06-28T02:54:53.548Z,430
2018-06-28T02:55:23.543Z,453
2018-06-28T02:55:53.604Z,473
2018-06-28T02:56:23.582Z,497
2018-06-28T02:56:53.650Z,520
2018-06-28T02:57:23.635Z,540
2018-06-28T02:57:53.662Z,563
2018-06-28T02:58:23.751Z,583
2018-06-28T02:58:53.744Z,600
2018-06-28T02:59:23.791Z,617
2018-06-28T02:59:53.780Z,633
2018-06-28T03:00:23.810Z,647
2018-06-28T03:00:53.853Z,663
2018-06-28T03:01:23.880Z,683
2018-06-28T03:01:53.934Z,703
2018-06-28T03:02:23.930Z,727
2018-06-28T03:02:54.011Z,750
2018-06-28T03:03:24.008Z,777
2018-06-28T03:03:54.058Z,803
2018-06-28T03:04:24.055Z,833
2018-06-28T03:04:54.113Z,857
2018-06-28T03:05:24.129Z,890
2018-06-28T03:05:54.175Z,923
2018-06-28T03:06:24.204Z,957
2018-06-28T03:06:54.252Z,990
2018-06-28T03:07:24.250Z,1027
2018-06-28T03:07:54.310Z,1063
2018-06-28T03:08:24.338Z,1097
2018-06-28T03:08:54.351Z,1133
2018-06-28T03:09:24.431Z,1170
2018-06-28T03:09:54.451Z,1210
2018-06-28T03:10:24.423Z,1250
2018-06-28T03:10:54.489Z,1287
2018-06-28T03:11:24.537Z,1330
2018-06-28T03:11:54.561Z,1370
2018-06-28T03:12:24.598Z,1413
2018-06-28T03:12:54.649Z,1457
2018-06-28T03:13:24.613Z,1497
2018-06-28T03:13:54.685Z,1540
2018-06-28T03:14:24.727Z,1583
2018-06-28T03:14:54.746Z,1630
2018-06-28T03:15:24.770Z,1673
2018-06-28T03:15:54.871Z,1710
2018-06-28T03:16:24.877Z,1750
2018-06-28T03:16:54.912Z,1793
2018-06-28T03:17:24.927Z,1833
2018-06-28T03:17:54.965Z,1877
2018-06-28T03:18:24.969Z,1917
2018-06-28T03:18:54.996Z,1953
2018-06-28T03:19:25.047Z,1993
2018-06-28T03:19:55.031Z,2037
2018-06-28T03:20:25.081Z,2077
2018-06-28T03:20:55.152Z,2120
2018-06-28T03:21:25.153Z,2157
2018-06-28T03:21:55.185Z,2197
2018-06-28T03:22:25.203Z,2240
2018-06-28T03:22:55.281Z,2280
2018-06-28T03:23:25.351Z,2323
2018-06-28T03:23:55.311Z,2360
2018-06-28T03:24:25.319Z,2400
2018-06-28T03:24:55.346Z,2443
2018-06-28T03:25:25.354Z,2483
2018-06-28T03:25:55.375Z,2523
2018-06-28T03:26:25.455Z,2560
2018-06-28T03:26:55.468Z,2597
2018-06-28T03:27:25.492Z,2637
2018-06-28T03:27:55.565Z,2677
2018-06-28T03:28:25.571Z,2717
2018-06-28T03:28:55.565Z,2760
2018-06-28T03:29:25.631Z,2800
2018-06-28T03:29:55.631Z,2843
2018-06-28T03:30:25.663Z,2890
2018-06-28T03:30:55.801Z,2937
2018-06-28T03:31:25.714Z,2983
2018-06-28T03:31:55.818Z,3023
2018-06-28T03:32:25.803Z,3067
2018-06-28T03:32:55.803Z,3110
2018-06-28T03:33:25.835Z,3153
2018-06-28T03:33:55.930Z,3197
2018-06-28T03:34:25.927Z,3233
2018-06-28T03:34:56.209Z,3270
2018-06-28T03:35:26.285Z,3307
2018-06-28T03:35:56.333Z,3350
2018-06-28T03:36:26.351Z,3387
2018-06-28T03:36:56.349Z,3423
2018-06-28T03:37:26.425Z,3457
2018-06-28T03:37:56.553Z,3500
2018-06-28T03:38:26.739Z,3543
2018-06-28T03:38:56.477Z,3583
2018-06-28T03:39:26.532Z,3623
2018-06-28T03:39:56.581Z,3660
2018-06-28T03:40:26.576Z,3703
2018-06-28T03:40:56.606Z,3763
2018-06-28T03:41:26.615Z,3827
2018-06-28T03:41:56.710Z,3870
2018-06-28T03:42:26.688Z,3910
2018-06-28T03:42:56.786Z,3957
2018-06-28T03:43:26.738Z,4007
2018-06-28T03:43:56.856Z,4050
2018-06-28T03:44:26.803Z,4093
2018-06-28T03:44:56.828Z,4140
2018-06-28T03:45:26.867Z,4177
2018-06-28T03:45:56.985Z,4217
2018-06-28T03:46:26.916Z,4263
2018-06-28T03:46:56.954Z,4313
2018-06-28T03:47:26.999Z,4363
2018-06-28T03:47:57.015Z,4410
2018-06-28T03:48:27.071Z,4447
2018-06-28T03:48:57.076Z,4480
2018-06-28T03:49:27.140Z,4520
2018-06-28T03:49:57.153Z,4560
2018-06-28T03:50:27.167Z,4607
2018-06-28T03:50:57.217Z,4653
2018-06-28T03:51:27.294Z,4693
2018-06-28T03:51:57.299Z,4733
2018-06-28T03:52:27.288Z,4777
2018-06-28T03:52:57.350Z,4827
2018-06-28T03:53:27.483Z,4870
2018-06-28T03:53:57.432Z,4907
2018-06-28T03:54:27.455Z,4947
2018-06-28T03:54:57.514Z,4993
2018-06-28T03:55:27.524Z,5033
2018-06-28T03:55:57.536Z,5070
2018-06-28T03:56:27.571Z,5110
2018-06-28T03:56:57.649Z,5143
2018-06-28T03:57:27.741Z,5183
2018-06-28T03:57:57.661Z,5220
2018-06-28T03:58:27.705Z,5257
2018-06-28T03:58:57.736Z,5293
2018-06-28T03:59:27.773Z,5333
2018-06-28T03:59:57.799Z,5363
2018-06-28T04:00:27.859Z,5400
2018-06-28T04:00:57.859Z,5437
2018-06-28T04:01:27.916Z,5473
2018-06-28T04:01:57.951Z,5510
2018-06-28T04:02:27.919Z,5547
2018-06-28T04:02:57.969Z,5577
2018-06-28T04:03:28.031Z,5613
2018-06-28T04:03:58.072Z,5650
2018-06-28T04:04:28.060Z,5687
2018-06-28T04:04:58.117Z,5723
2018-06-28T04:05:28.122Z,5760
2018-06-28T04:05:58.216Z,5797
2018-06-28T04:06:28.260Z,5830
2018-06-28T04:06:58.215Z,5867
2018-06-28T04:07:28.253Z,5903
2018-06-28T04:07:58.252Z,5937
2018-06-28T04:08:28.310Z,5970
2018-06-28T04:08:58.364Z,6003
2018-06-28T04:09:28.377Z,6037
2018-06-28T04:09:58.420Z,6077
2018-06-28T04:10:28.414Z,6113
2018-06-28T04:10:58.481Z,6150
2018-06-28T04:11:28.478Z,6187
2018-06-28T04:11:58.491Z,6220
2018-06-28T04:12:28.558Z,6257
2018-06-28T04:12:58.557Z,6293
2018-06-28T04:13:28.640Z,6330
2018-06-28T04:13:58.620Z,6370
2018-06-28T04:14:28.690Z,6403
2018-06-28T04:14:58.676Z,6440
2018-06-28T04:15:28.747Z,6480
2018-06-28T04:15:58.742Z,6520
2018-06-28T04:16:28.770Z,6560
2018-06-28T04:16:58.799Z,6603
2018-06-28T04:17:28.826Z,6640
2018-06-28T04:17:59.208Z,6683
2018-06-28T04:18:29.302Z,6730
2018-06-28T04:18:59.237Z,6777
2018-06-28T04:19:29.292Z,6820
2018-06-28T04:19:59.301Z,6857
2018-06-28T04:20:29.362Z,6900
2018-06-28T04:20:59.403Z,6947
2018-06-28T04:21:29.450Z,6990
2018-06-28T04:21:59.470Z,7037
2018-06-28T04:22:29.480Z,7080
2018-06-28T04:22:59.506Z,7130
2018-06-28T04:23:29.548Z,7183
2018-06-28T04:23:59.541Z,7240
2018-06-28T04:24:29.608Z,7290
2018-06-28T04:24:59.600Z,7353
2018-06-28T04:25:29.675Z,7417
2018-06-28T04:25:59.659Z,7477
2018-06-28T04:26:29.709Z,7540
2018-06-28T04:26:59.721Z,7607
2018-06-28T04:27:29.826Z,7673
2018-06-28T04:27:59.776Z,7730
2018-06-28T04:28:29.842Z,7783
2018-06-28T04:28:59.872Z,7837
2018-06-28T04:29:29.893Z,7887
2018-06-28T04:29:59.905Z,7930
2018-06-28T04:30:29.933Z,7977
2018-06-28T04:30:59.972Z,8023
2018-06-28T04:31:30.003Z,8067
2018-06-28T04:32:00.048Z,8107
2018-06-28T04:32:30.073Z,8147
2018-06-28T04:33:00.104Z,8183
2018-06-28T04:33:30.195Z,8210
2018-06-28T04:34:00.184Z,8220
2018-06-28T04:34:30.182Z,8203
2018-06-28T04:35:01.509Z,8163
2018-06-28T04:35:30.285Z,8130
2018-06-28T04:36:00.979Z,8103
2018-06-28T04:36:30.332Z,8073
2018-06-28T04:37:01.139Z,8043
2018-06-28T04:37:30.442Z,8020
2018-06-28T04:38:01.495Z,8000
2018-06-28T04:38:30.527Z,7967
2018-06-28T04:39:01.592Z,7960
2018-06-28T04:39:30.556Z,7990
2018-06-28T04:40:01.698Z,8027
2018-06-28T04:40:30.593Z,8060
2018-06-28T04:41:01.637Z,8107
2018-06-28T04:41:30.666Z,8147
2018-06-28T04:42:01.079Z,8203
2018-06-28T04:42:30.779Z,8263
2018-06-28T04:43:01.013Z,8317
2018-06-28T04:43:30.951Z,8377
2018-06-28T04:44:01.461Z,8470
2018-06-28T04:44:30.848Z,8590
2018-06-28T04:45:01.688Z,8733
2018-06-28T04:45:30.896Z,8853
2018-06-28T04:46:01.574Z,8997
2018-06-28T04:46:30.953Z,9097
2018-06-28T04:47:01.523Z,9150
2018-06-28T04:47:30.988Z,9180
2018-06-28T04:48:01.222Z,9213
2018-06-28T04:48:31.352Z,9250
2018-06-28T04:49:01.291Z,9287
2018-06-28T04:49:31.353Z,9320
2018-06-28T04:50:01.632Z,9353
2018-06-28T04:50:31.431Z,9383
2018-06-28T04:51:01.413Z,9410
2018-06-28T04:51:31.496Z,9437
2018-06-28T04:52:01.650Z,9463
2018-06-28T04:52:31.521Z,9490
2018-06-28T04:53:01.776Z,9517
2018-06-28T04:53:31.590Z,9547
2018-06-28T04:54:01.691Z,9580
2018-06-28T04:54:31.624Z,9610
2018-06-28T04:55:01.677Z,9647
2018-06-28T04:55:31.738Z,9683
2018-06-28T04:56:01.721Z,9717
2018-06-28T04:56:31.756Z,9750
2018-06-28T04:57:01.797Z,9780
2018-06-28T04:57:31.812Z,9810
2018-06-28T04:58:01.847Z,9833
2018-06-28T04:58:31.878Z,9863
2018-06-28T04:59:01.912Z,9893
2018-06-28T04:59:31.941Z,9923
2018-06-28T05:00:01.963Z,9950
2018-06-28T05:00:31.998Z,9980
2018-06-28T05:01:02.039Z,10013
2018-06-28T05:01:32.090Z,10023
2018-06-28T05:02:02.606Z,10073
2018-06-28T05:02:32.659Z,10107
2018-06-28T05:03:02.707Z,10137
2018-06-28T05:03:32.708Z,10167
2018-06-28T05:04:02.785Z,10193
2018-06-28T05:04:32.758Z,10223
2018-06-28T05:05:02.888Z,11253
2018-06-28T05:05:32.822Z,14297
2018-06-28T05:06:02.858Z,18433
2018-06-28T05:06:32.891Z,22620
2018-06-28T05:07:02.972Z,26053
2018-06-28T05:07:32.945Z,27463
2018-06-28T05:08:02.975Z,27643
2018-06-28T05:08:33.054Z,27820
2018-06-28T05:09:03.068Z,27997
2018-06-28T05:09:33.066Z,28143
2018-06-28T05:10:03.134Z,28333
2018-06-28T05:10:33.127Z,28470
2018-06-28T05:11:03.236Z,28617
2018-06-28T05:11:33.202Z,28767
2018-06-28T05:12:03.285Z,28257
2018-06-28T05:12:33.308Z,27570
2018-06-28T05:13:03.348Z,27203
2018-06-28T05:13:33.373Z,26683
2018-06-28T05:14:03.380Z,26067
2018-06-28T05:14:33.440Z,23410
2018-06-28T05:15:03.488Z,20843
2018-06-28T05:15:33.524Z,17957
2018-06-28T05:16:03.529Z,15993
2018-06-28T05:16:33.555Z,16307
2018-06-28T05:17:03.578Z,13533
2018-06-28T05:17:33.586Z,12527
2018-06-28T05:18:03.629Z,13197
2018-06-28T05:18:33.651Z,12283
2018-06-28T05:19:03.695Z,11880
2018-06-28T05:19:33.754Z,11970
2018-06-28T05:20:03.711Z,14167
2018-06-28T05:20:33.771Z,15980
2018-06-28T05:21:03.854Z,17813
2018-06-28T05:21:33.859Z,17080
2018-06-28T05:22:03.893Z,15507
2018-06-28T05:22:33.910Z,13963
2018-06-28T05:23:03.983Z,12403
2018-06-28T05:23:34.031Z,11840
2018-06-28T05:24:04.040Z,11963
2018-06-28T05:24:33.998Z,11607
2018-06-28T05:25:04.114Z,11530
2018-06-28T05:25:34.139Z,11303
2018-06-28T05:26:04.146Z,11287
2018-06-28T05:26:34.252Z,11460
2018-06-28T05:27:04.151Z,11747
2018-06-28T05:27:34.232Z,11767
2018-06-28T05:28:04.204Z,12970
2018-06-28T05:28:34.281Z,14180
2018-06-28T05:29:04.313Z,14090
2018-06-28T05:29:34.332Z,15633
2018-06-28T05:30:04.459Z,15627
2018-06-28T05:30:34.374Z,15460
2018-06-28T05:31:04.446Z,14243
2018-06-28T05:31:34.450Z,13460
2018-06-28T05:32:04.899Z,12723
2018-06-28T05:32:34.899Z,12057
2018-06-28T05:33:04.905Z,11807
2018-06-28T05:33:34.933Z,11533
2018-06-28T05:34:05.020Z,11637
2018-06-28T05:34:35.021Z,11680
2018-06-28T05:35:05.021Z,11777
2018-06-28T05:35:35.056Z,11743
2018-06-28T05:36:05.127Z,11450
2018-06-28T05:36:35.154Z,12567
2018-06-28T05:37:05.162Z,12100
2018-06-28T05:37:35.188Z,11953
2018-06-28T05:38:05.252Z,11643
2018-06-28T05:38:35.325Z,12263
2018-06-28T05:39:05.361Z,11510
2018-06-28T05:39:35.303Z,11333
2018-06-28T05:40:35.422Z,11517
2018-06-28T05:41:05.453Z,12483
2018-06-28T05:41:35.532Z,11840
2018-06-28T05:42:05.504Z,11403
2018-06-28T05:42:35.483Z,11393
2018-06-28T05:43:05.578Z,11427
2018-06-28T05:43:35.575Z,11460
2018-06-28T05:44:05.610Z,11600
2018-06-28T05:44:35.662Z,11770
2018-06-28T05:45:05.634Z,11783
2018-06-28T05:45:35.689Z,14377
2018-06-28T05:46:05.693Z,12517
2018-06-28T05:46:35.754Z,13197
2018-06-28T05:47:05.806Z,12093
2018-06-28T05:47:35.940Z,13680
2018-06-28T05:48:05.818Z,11910
2018-06-28T05:48:35.863Z,12100
2018-06-28T05:49:05.944Z,11760
2018-06-28T05:49:35.925Z,11917
2018-06-28T05:50:05.938Z,11613
2018-06-28T05:50:35.966Z,11413
2018-06-28T05:51:06.008Z,11743
2018-06-28T05:51:36.030Z,11627
2018-06-28T05:52:06.067Z,11910
2018-06-28T05:52:36.097Z,12723
2018-06-28T05:53:06.117Z,13390
2018-06-28T05:53:36.209Z,12733
2018-06-28T05:54:06.265Z,14393
2018-06-28T05:54:36.252Z,12700
2018-06-28T05:55:06.262Z,12887
2018-06-28T05:55:36.340Z,12853
2018-06-28T05:56:06.354Z,12647
2018-06-28T05:56:36.420Z,12080
2018-06-28T05:57:06.424Z,12033
2018-06-28T05:57:36.442Z,12230
2018-06-28T05:58:06.486Z,11783
2018-06-28T05:58:36.570Z,12083
2018-06-28T05:59:06.564Z,12007
2018-06-28T05:59:36.585Z,13117
2018-06-28T06:00:06.622Z,13550
2018-06-28T06:00:36.661Z,13643
2018-06-28T06:01:06.685Z,13303
2018-06-28T06:01:36.714Z,13467
2018-06-28T06:02:06.743Z,13197
2018-06-28T06:02:36.783Z,14240
2018-06-28T06:03:06.931Z,12733
2018-06-28T06:03:36.805Z,20783
2018-06-28T06:04:06.935Z,12323
2018-06-28T06:04:36.903Z,12577
2018-06-28T06:05:06.961Z,12290
2018-06-28T06:05:36.936Z,12337
2018-06-28T06:06:07.029Z,12433
2018-06-28T06:06:37.016Z,12423
2018-06-28T06:07:07.076Z,12453
2018-06-28T06:07:37.082Z,12773
2018-06-28T06:08:07.511Z,12520
2018-06-28T06:08:37.619Z,12673
2018-06-28T06:09:07.680Z,12797
2018-06-28T06:09:37.602Z,12643
2018-06-28T06:10:07.638Z,12723
2018-06-28T06:10:37.658Z,14257
2018-06-28T06:11:07.748Z,13243
2018-06-28T06:11:37.716Z,14123
2018-06-28T06:12:07.794Z,12940
2018-06-28T06:12:37.787Z,12790
2018-06-28T06:13:07.802Z,12877
2018-06-28T06:13:37.845Z,14120
2018-06-28T06:14:08.101Z,13800
2018-06-28T06:14:38.080Z,13550
2018-06-28T06:15:07.925Z,14183
2018-06-28T06:15:37.954Z,13473
2018-06-28T06:16:07.983Z,14110
2018-06-28T06:16:38.018Z,13903
2018-06-28T06:17:08.054Z,13400
2018-06-28T06:17:38.122Z,14417
2018-06-28T06:18:08.119Z,14163
2018-06-28T06:18:38.142Z,13937
2018-06-28T06:19:08.251Z,15740
2018-06-28T06:19:38.200Z,17140
2018-06-28T06:20:08.245Z,17347
2018-06-28T06:20:38.326Z,16343
2018-06-28T06:21:08.343Z,14723
2018-06-28T06:21:38.365Z,15357
2018-06-28T06:22:08.439Z,13653
2018-06-28T06:22:38.410Z,15030
2018-06-28T06:23:08.477Z,14333
2018-06-28T06:23:38.642Z,14007
2018-06-28T06:24:08.569Z,14073
2018-06-28T06:24:38.577Z,14810
2018-06-28T06:25:08.606Z,15090
2018-06-28T06:25:38.633Z,15173
2018-06-28T06:26:08.603Z,13963
2018-06-28T06:26:38.659Z,14720
2018-06-28T06:27:08.666Z,13337
2018-06-28T06:27:38.738Z,13303
2018-06-28T06:28:08.724Z,13447
2018-06-28T06:28:38.773Z,13800
2018-06-28T06:29:08.849Z,13443
2018-06-28T06:29:38.860Z,13383
2018-06-28T06:30:08.853Z,13623
2018-06-28T06:30:38.882Z,13533
2018-06-28T06:31:08.914Z,13950
2018-06-28T06:31:38.964Z,13757
2018-06-28T06:32:08.968Z,13807
2018-06-28T06:32:39.022Z,13757
2018-06-28T06:33:09.034Z,13760
2018-06-28T06:33:39.077Z,13707
2018-06-28T06:34:09.186Z,13697
2018-06-28T06:35:09.160Z,13780
2018-06-28T06:35:39.206Z,13740
2018-06-28T06:36:09.265Z,13747
2018-06-28T06:36:39.247Z,13770
2018-06-28T06:37:09.301Z,13797
2018-06-28T06:37:39.366Z,13830
2018-06-28T06:38:09.372Z,13810
2018-06-28T06:38:39.454Z,13913
2018-06-28T06:39:09.494Z,14157
2018-06-28T06:39:39.495Z,13890
2018-06-28T06:40:09.506Z,15013
2018-06-28T06:40:39.529Z,14253
2018-06-28T06:41:09.566Z,14323
2018-06-28T06:41:39.615Z,13943
2018-06-28T06:42:09.586Z,14063
2018-06-28T06:42:39.652Z,13977
2018-06-28T06:43:09.777Z,14343
2018-06-28T06:43:39.715Z,13997
2018-06-28T06:44:09.809Z,14163
2018-06-28T06:44:39.848Z,14137
2018-06-28T06:45:09.854Z,14027
2018-06-28T06:45:39.879Z,14030
2018-06-28T06:46:09.876Z,14033
2018-06-28T06:47:09.962Z,14037
2018-06-28T06:47:39.945Z,14043
2018-06-28T06:48:10.045Z,14050
2018-06-28T06:48:40.115Z,14083
2018-06-28T06:49:10.131Z,14080
2018-06-28T06:49:40.092Z,14190
2018-06-28T06:50:10.164Z,14043
2018-06-28T06:50:40.146Z,14023
2018-06-28T06:51:10.221Z,14213
2018-06-28T06:51:40.209Z,13987
2018-06-28T06:52:10.287Z,14013
2018-06-28T06:52:40.415Z,14060
2018-06-28T06:53:10.489Z,14113
2018-06-28T06:53:40.497Z,14197
2018-06-28T06:54:10.683Z,14220
2018-06-28T06:54:40.573Z,14237
2018-06-28T06:55:10.570Z,14223
2018-06-28T06:55:40.597Z,14227
2018-06-28T06:56:10.656Z,14220
2018-06-28T06:56:40.649Z,14207
2018-06-28T06:57:10.718Z,14217
2018-06-28T06:57:40.778Z,14193
2018-06-28T06:58:10.776Z,14250
2018-06-28T06:58:40.836Z,14213
2018-06-28T06:59:10.865Z,14393
2018-06-28T06:59:40.844Z,14580
2018-06-28T07:00:10.900Z,14297
2018-06-28T07:00:40.917Z,14333
2018-06-28T07:01:10.932Z,14357
2018-06-28T07:01:41.010Z,14407
2018-06-28T07:02:10.998Z,15150
2018-06-28T07:02:41.071Z,14733
2018-06-28T07:03:11.052Z,16587
2018-06-28T07:03:41.129Z,17080
2018-06-28T07:04:11.175Z,17607
2018-06-28T07:04:41.206Z,18777
2018-06-28T07:05:11.188Z,18770
2018-06-28T07:05:41.247Z,16837
2018-06-28T07:06:11.239Z,16633
2018-06-28T07:06:41.274Z,16103
2018-06-28T07:07:11.327Z,15933
2018-06-28T07:07:41.333Z,14720
2018-06-28T07:08:11.446Z,14677
2018-06-28T07:08:41.652Z,14927
2018-06-28T07:09:11.508Z,14783
2018-06-28T07:09:41.480Z,23517
2018-06-28T07:10:11.622Z,19253
2018-06-28T07:10:41.580Z,19910
2018-06-28T07:11:11.608Z,15190
2018-06-28T07:11:41.606Z,18997
2018-06-28T07:12:11.690Z,21307
2018-06-28T07:12:41.668Z,16227
2018-06-28T07:13:11.729Z,16410
2018-06-28T07:13:41.707Z,15740
2018-06-28T07:14:11.825Z,16383
2018-06-28T07:14:41.935Z,15300
2018-06-28T07:15:11.820Z,16357
2018-06-28T07:15:41.827Z,16300
2018-06-28T07:16:11.856Z,18087
2018-06-28T07:16:42.054Z,21583
2018-06-28T07:17:11.920Z,20353
2018-06-28T07:17:41.953Z,17133
2018-06-28T07:18:11.996Z,19393
2018-06-28T07:18:42.018Z,16813
2018-06-28T07:19:12.053Z,15663
2018-06-28T07:19:42.081Z,15493
2018-06-28T07:20:12.138Z,15790
2018-06-28T07:20:42.218Z,17780
2018-06-28T07:21:12.167Z,23327
2018-06-28T07:21:42.231Z,23127
2018-06-28T07:22:12.255Z,18923
2018-06-28T07:22:42.343Z,15753
2018-06-28T07:23:12.306Z,15763
2018-06-28T07:23:42.355Z,15733
2018-06-28T07:24:12.395Z,15840
2018-06-28T07:24:42.425Z,15763
2018-06-28T07:25:12.436Z,16203
2018-06-28T07:25:42.563Z,15890
2018-06-28T07:26:12.491Z,16003
2018-06-28T07:26:42.571Z,16217
2018-06-28T07:27:12.577Z,16300
2018-06-28T07:27:42.627Z,16383
2018-06-28T07:28:12.598Z,16770
2018-06-28T07:28:42.748Z,16670
2018-06-28T07:29:12.737Z,16877
2018-06-28T07:29:42.752Z,16747
2018-06-28T07:30:12.750Z,17193
2018-06-28T07:30:42.807Z,16857
2018-06-28T07:31:12.815Z,16927
2018-06-28T07:31:42.820Z,17047
2018-06-28T07:32:12.901Z,17317
2018-06-28T07:32:42.895Z,17617
2018-06-28T07:33:13.156Z,20743
2018-06-28T07:33:43.000Z,18520
2018-06-28T07:34:13.059Z,18323
2018-06-28T07:34:43.047Z,30073
2018-06-28T07:35:13.089Z,25710
2018-06-28T07:35:43.211Z,23040
2018-06-28T07:36:13.145Z,30270
2018-06-28T07:36:43.166Z,20677
2018-06-28T07:37:13.223Z,27300
2018-06-28T07:37:43.261Z,18560
2018-06-28T07:38:13.223Z,21997
2018-06-28T07:38:43.301Z,21820
2018-06-28T07:39:13.300Z,19797
2018-06-28T07:39:43.351Z,20060
2018-06-28T07:40:13.413Z,21207
2018-06-28T07:40:43.491Z,20410
2018-06-28T07:41:13.437Z,28650
2018-06-28T07:41:43.505Z,34980
2018-06-28T07:42:13.493Z,36827
2018-06-28T07:42:43.548Z,21147
2018-06-28T07:43:13.544Z,44223
2018-06-28T07:43:43.602Z,39563
2018-06-28T07:44:13.607Z,19577
2018-06-28T07:44:43.624Z,32283
2018-06-28T07:45:14.251Z,83993
2018-06-28T07:45:43.720Z,21393
2018-06-28T07:46:13.772Z,104827
2018-06-28T07:46:43.749Z,102340
2018-06-28T07:47:13.825Z,79140
2018-06-28T07:47:43.816Z,111983
2018-06-28T07:48:13.872Z,113583
2018-06-28T07:48:43.900Z,82360
2018-06-28T07:49:13.924Z,44180
2018-06-28T07:49:43.935Z,102770
2018-06-28T07:50:13.988Z,75877
2018-06-28T07:50:44.005Z,70300
2018-06-28T07:51:14.020Z,83163
2018-06-28T07:51:44.055Z,19977
2018-06-28T07:52:14.129Z,48233
2018-06-28T07:52:44.119Z,39570
2018-06-28T07:53:14.146Z,88260
2018-06-28T07:53:44.202Z,84230
2018-06-28T07:54:14.223Z,41123
2018-06-28T07:54:44.289Z,103030
2018-06-28T07:55:14.314Z,21093
2018-06-28T07:55:44.591Z,20883
2018-06-28T07:56:14.357Z,23280
2018-06-28T07:56:44.399Z,106033
2018-06-28T07:57:14.463Z,85690
2018-06-28T07:57:44.481Z,120910
2018-06-28T07:58:14.467Z,28893
2018-06-28T07:58:44.558Z,128737
2018-06-28T07:59:14.528Z,129520
2018-06-28T07:59:44.633Z,76707
2018-06-28T08:00:14.583Z,51437
2018-06-28T08:00:44.760Z,55837
2018-06-28T08:01:14.693Z,93230
2018-06-28T08:01:44.685Z,26813
2018-06-28T08:02:14.702Z,125857
2018-06-28T08:02:44.902Z,105557
2018-06-28T08:03:14.767Z,126800
2018-06-28T08:03:44.800Z,54217
2018-06-28T08:04:14.844Z,132110
2018-06-28T08:04:44.860Z,132353
2018-06-28T08:05:14.904Z,130080
2018-06-28T08:05:44.940Z,134387
2018-06-28T08:06:14.956Z,135023
2018-06-28T08:06:44.978Z,135440
2018-06-28T08:07:15.013Z,133677
2018-06-28T08:07:45.046Z,131330
2018-06-28T08:08:15.077Z,133213
2018-06-28T08:08:45.162Z,133393
2018-06-28T08:09:15.137Z,105333
2018-06-28T08:09:45.245Z,131133
2018-06-28T08:10:15.193Z,133613
2018-06-28T08:10:45.324Z,134230
2018-06-28T08:11:15.266Z,133900
2018-06-28T08:11:45.311Z,130137
2018-06-28T08:12:15.334Z,131747
2018-06-28T08:12:45.401Z,130860
2018-06-28T08:13:15.423Z,132480
2018-06-28T08:13:46.228Z,133850
2018-06-28T08:14:15.488Z,135193
2018-06-28T08:14:45.507Z,137063
2018-06-28T08:15:15.540Z,137227
2018-06-28T08:15:45.597Z,136407
2018-06-28T08:16:15.611Z,133127
2018-06-28T08:16:45.641Z,136710
2018-06-28T08:17:15.674Z,137463
2018-06-28T08:17:45.721Z,140060
2018-06-28T08:18:15.697Z,140103
2018-06-28T08:18:45.743Z,142333
2018-06-28T08:19:15.794Z,141873
2018-06-28T08:19:45.820Z,135580
2018-06-28T08:20:15.891Z,131527
2018-06-28T08:20:45.935Z,132443
2018-06-28T08:21:15.911Z,136537
2018-06-28T08:21:45.943Z,131633
2018-06-28T08:22:15.986Z,118803
2018-06-28T08:22:45.995Z,115287
2018-06-28T08:23:16.042Z,120023
2018-06-28T08:23:46.069Z,130820
2018-06-28T08:24:16.101Z,139547
2018-06-28T08:24:46.176Z,142087
2018-06-28T08:25:16.183Z,143067
2018-06-28T08:25:46.262Z,144413
2018-06-28T08:26:16.208Z,144723
2018-06-28T08:26:46.254Z,143727
2018-06-28T08:27:16.272Z,141920
2018-06-28T08:27:46.326Z,137383
2018-06-28T08:28:16.367Z,132660
2018-06-28T08:28:46.389Z,135487
2018-06-28T08:29:16.417Z,136410
2018-06-28T08:29:46.444Z,136570
2018-06-28T08:30:16.435Z,137390
2018-06-28T08:30:46.574Z,139207
2018-06-28T08:31:16.504Z,139220
2018-06-28T08:31:46.533Z,142013
2018-06-28T08:32:16.570Z,141660
2018-06-28T08:32:46.629Z,139567
2018-06-28T08:33:16.637Z,138243
2018-06-28T08:33:46.661Z,139567
2018-06-28T08:34:16.675Z,137470
2018-06-28T08:34:46.754Z,138517
2018-06-28T08:35:16.747Z,135783
2018-06-28T08:35:46.819Z,139290
2018-06-28T08:36:16.966Z,136523
2018-06-28T08:36:46.828Z,139100
2018-06-28T08:37:16.908Z,140840
2018-06-28T08:37:46.890Z,135583
2018-06-28T08:38:16.925Z,131880
2018-06-28T08:38:46.963Z,132040
2018-06-28T08:39:16.988Z,127730
2018-06-28T08:39:47.043Z,129613
2018-06-28T08:40:17.049Z,136957
2018-06-28T08:40:47.119Z,137503
2018-06-28T08:41:17.135Z,136157
2018-06-28T08:41:47.145Z,136797
2018-06-28T08:42:17.185Z,126040
2018-06-28T08:42:47.217Z,120957
2018-06-28T08:43:17.304Z,119950
2018-06-28T08:43:47.308Z,108243
2018-06-28T08:44:17.373Z,118353
2018-06-28T08:44:47.372Z,115680
2018-06-28T08:45:17.390Z,123557
2018-06-28T08:45:47.451Z,130130
2018-06-28T08:46:17.459Z,133527
2018-06-28T08:46:47.507Z,129817
2018-06-28T08:47:17.528Z,135397
2018-06-28T08:47:47.563Z,134513
2018-06-28T08:48:17.565Z,134657
2018-06-28T08:48:47.620Z,130547
2018-06-28T08:49:17.622Z,134030
2018-06-28T08:49:47.647Z,132607
2018-06-28T08:50:17.723Z,131557
2018-06-28T08:50:47.758Z,132283
2018-06-28T08:51:17.743Z,132580
2018-06-28T08:51:47.760Z,132600
2018-06-28T08:52:17.788Z,131253
2018-06-28T08:52:47.832Z,131173
2018-06-28T08:53:17.865Z,126960
2018-06-28T08:53:47.896Z,131130
2018-06-28T08:54:17.910Z,129917
2018-06-28T08:54:47.950Z,131500
2018-06-28T08:55:18.082Z,130887
2018-06-28T08:55:48.034Z,126077
2018-06-28T08:56:18.112Z,126923
2018-06-28T08:56:48.071Z,127960
2018-06-28T08:57:18.103Z,132323
2018-06-28T08:57:48.299Z,133923
2018-06-28T08:58:18.268Z,135923
2018-06-28T08:58:48.297Z,134470
2018-06-28T08:59:18.255Z,133887